createdAt,value
2019-05-10T00:00:36.563Z,13.50
2019-05-10T00:04:59.836Z,13.50
2019-05-10T00:09:06.857Z,13.50
2019-05-10T00:13:19.584Z,13.50
2019-05-10T00:17:27.185Z,13.40
2019-05-10T00:21:33.531Z,13.40
2019-05-10T00:25:39.577Z,13.40
2019-05-10T00:29:45.358Z,13.40
2019-05-10T00:33:51.213Z,13.30
2019-05-10T00:37:58.169Z,13.30
2019-05-10T00:42:04.097Z,13.30
2019-05-10T00:46:11.546Z,13.20
2019-05-10T00:50:22.309Z,13.20
2019-05-10T00:54:28.269Z,13.10
2019-05-10T00:58:34.140Z,13.10
2019-05-10T01:02:41.143Z,13.10
2019-05-10T01:06:48.223Z,13.10
2019-05-10T01:10:53.962Z,13.10
2019-05-10T01:15:00.299Z,13.00
2019-05-10T01:19:06.155Z,13.10
2019-05-10T01:23:12.652Z,13.10
2019-05-10T01:27:20.331Z,13.10
2019-05-10T01:31:26.279Z,13.00
2019-05-10T01:35:34.218Z,13.00
2019-05-10T01:39:41.106Z,13.00
2019-05-10T01:43:47.064Z,13.10
2019-05-10T01:47:54.011Z,12.90
2019-05-10T01:52:00.303Z,12.80
2019-05-10T01:56:06.482Z,12.80
2019-05-10T02:00:12.781Z,12.70
2019-05-10T02:04:18.461Z,12.80
2019-05-10T02:08:24.405Z,12.70
2019-05-10T02:12:30.068Z,12.80
2019-05-10T02:16:36.019Z,12.80
2019-05-10T02:20:44.225Z,12.80
2019-05-10T02:24:49.961Z,12.80
2019-05-10T02:28:55.827Z,12.70
2019-05-10T02:33:01.852Z,12.60
2019-05-10T02:37:08.145Z,12.60
2019-05-10T02:41:14.279Z,12.60
2019-05-10T02:45:21.276Z,12.60
2019-05-10T02:49:26.996Z,12.60
2019-05-10T02:53:32.866Z,12.60
2019-05-10T02:57:40.372Z,12.60
2019-05-10T03:01:46.788Z,12.60
2019-05-10T03:05:54.250Z,12.60
2019-05-10T03:10:00.700Z,12.60
2019-05-10T03:14:10.560Z,12.60
2019-05-10T03:18:18.716Z,12.60
2019-05-10T03:22:26.233Z,12.60
2019-05-10T03:26:50.364Z,12.60
2019-05-10T03:30:48.294Z,12.60
2019-05-10T03:34:54.096Z,12.60
2019-05-10T03:39:01.586Z,12.50
2019-05-10T03:43:12.039Z,12.50
2019-05-10T03:47:18.771Z,12.50
2019-05-10T03:51:24.827Z,12.40
2019-05-10T03:55:30.758Z,12.40
2019-05-10T03:59:36.968Z,12.50
2019-05-10T04:03:42.847Z,12.50
2019-05-10T04:07:48.769Z,12.60
2019-05-10T04:11:55.975Z,12.60
2019-05-10T04:16:06.942Z,12.40
2019-05-10T04:20:13.402Z,12.50
2019-05-10T04:24:21.152Z,12.50
2019-05-10T04:28:29.555Z,12.50
2019-05-10T04:32:35.363Z,12.50
2019-05-10T04:36:41.116Z,12.50
2019-05-10T04:40:49.285Z,12.50
2019-05-10T04:44:55.152Z,12.50
2019-05-10T04:49:00.934Z,12.60
2019-05-10T04:53:07.177Z,12.50
2019-05-10T04:57:12.938Z,12.60
2019-05-10T05:01:18.619Z,12.60
2019-05-10T05:05:26.404Z,12.60
2019-05-10T05:09:32.297Z,12.60
2019-05-10T05:13:38.015Z,12.60
2019-05-10T05:17:43.739Z,12.80
2019-05-10T05:21:49.644Z,13.30
2019-05-10T05:25:56.217Z,13.80
2019-05-10T05:30:02.173Z,14.10
2019-05-10T05:34:07.814Z,14.20
2019-05-10T05:38:13.571Z,14.10
2019-05-10T05:42:22.270Z,14.10
2019-05-10T05:46:28.448Z,14.60
2019-05-10T05:50:34.154Z,14.60
2019-05-10T05:54:39.772Z,15.20
2019-05-10T05:58:47.047Z,14.60
2019-05-10T06:02:52.777Z,14.00
2019-05-10T06:06:59.242Z,14.00
2019-05-10T06:11:08.971Z,14.00
2019-05-10T06:15:13.102Z,14.00
2019-05-10T06:19:20.482Z,14.00
2019-05-10T06:23:29.188Z,14.10
2019-05-10T06:27:35.265Z,14.10
2019-05-10T06:31:40.723Z,14.20
2019-05-10T06:35:46.439Z,14.40
2019-05-10T06:39:51.998Z,14.40
2019-05-10T06:43:57.623Z,14.90
2019-05-10T06:48:03.281Z,15.10
2019-05-10T06:52:08.930Z,15.40
2019-05-10T06:56:14.764Z,15.50
2019-05-10T07:00:20.421Z,16.00
2019-05-10T07:04:27.194Z,15.90
2019-05-10T07:08:43.831Z,16.00
2019-05-10T07:12:40.057Z,15.90
2019-05-10T07:16:45.622Z,15.80
2019-05-10T07:20:51.244Z,16.20
2019-05-10T07:25:03.658Z,16.30
2019-05-10T07:29:04.337Z,16.10
2019-05-10T07:33:10.088Z,15.60
2019-05-10T07:37:16.111Z,16.20
2019-05-10T07:41:26.384Z,16.30
2019-05-10T07:45:29.324Z,16.50
2019-05-10T07:49:34.888Z,17.20
2019-05-10T07:53:40.660Z,17.00
2019-05-10T07:57:46.360Z,16.90
2019-05-10T08:01:51.996Z,16.90
2019-05-10T08:06:01.803Z,16.40
2019-05-10T08:10:08.488Z,16.50
2019-05-10T08:14:13.178Z,17.10
2019-05-10T08:18:21.155Z,17.50
2019-05-10T08:22:26.084Z,17.60
2019-05-10T08:26:32.855Z,17.70
2019-05-10T08:30:52.113Z,18.00
2019-05-10T08:34:53.134Z,18.00
2019-05-10T08:39:05.366Z,17.70
2019-05-10T08:43:08.907Z,18.20
2019-05-10T08:47:20.681Z,18.00
2019-05-10T08:51:19.789Z,18.30
2019-05-10T08:55:25.448Z,18.50
2019-05-10T08:59:54.271Z,19.00
2019-05-10T09:04:01.945Z,18.70
2019-05-10T09:08:05.891Z,18.80
2019-05-10T09:12:12.298Z,19.00
2019-05-10T09:16:18.116Z,19.00
2019-05-10T09:20:26.512Z,19.20
2019-05-10T09:24:34.533Z,19.70
2019-05-10T09:28:39.092Z,19.60
2019-05-10T09:32:46.092Z,19.60
2019-05-10T09:36:52.966Z,19.60
2019-05-10T09:41:02.266Z,19.80
2019-05-10T09:45:09.671Z,19.90
2019-05-10T09:49:18.208Z,20.10
2019-05-10T09:53:25.627Z,20.50
2019-05-10T09:57:32.021Z,20.10
2019-05-10T10:01:37.074Z,20.10
2019-05-10T10:05:42.964Z,20.50
2019-05-10T10:09:48.626Z,20.60
2019-05-10T10:13:59.103Z,20.40
2019-05-10T10:18:02.517Z,20.50
2019-05-10T10:22:11.104Z,20.90
2019-05-10T10:26:18.576Z,21.20
2019-05-10T10:30:23.036Z,21.20
2019-05-10T10:34:32.708Z,21.00
2019-05-10T10:38:37.070Z,21.40
2019-05-10T10:47:57.318Z,21.60
2019-05-10T10:52:05.535Z,21.70
2019-05-10T10:56:10.012Z,21.80
2019-05-10T11:00:20.373Z,21.70
2019-05-10T11:04:23.149Z,21.90
2019-05-10T11:08:32.800Z,21.90
2019-05-10T11:12:36.158Z,22.00
2019-05-10T11:16:46.331Z,22.00
2019-05-10T11:20:53.281Z,22.20
2019-05-10T11:25:03.151Z,22.50
2019-05-10T11:29:03.779Z,22.50
2019-05-10T11:33:23.898Z,22.30
2019-05-10T11:37:18.557Z,22.60
2019-05-10T11:41:24.744Z,23.00
2019-05-10T11:45:34.408Z,22.80
2019-05-10T11:49:40.498Z,23.30
2019-05-10T11:53:48.827Z,23.40
2019-05-10T11:58:02.078Z,23.30
2019-05-10T12:02:02.941Z,23.70
2019-05-10T12:06:09.095Z,23.70
2019-05-10T12:10:21.025Z,23.40
2019-05-10T12:14:22.540Z,23.60
2019-05-10T12:18:28.126Z,24.00
2019-05-10T12:22:38.295Z,24.00
2019-05-10T12:27:13.206Z,24.00
2019-05-10T12:30:51.141Z,24.10
2019-05-10T12:34:57.328Z,24.50
2019-05-10T12:39:03.371Z,24.40
2019-05-10T12:43:10.978Z,24.70
2019-05-10T12:47:17.088Z,24.50
2019-05-10T12:51:22.723Z,24.90
2019-05-10T12:55:28.325Z,24.70
2019-05-10T12:59:34.953Z,24.70
2019-05-10T13:03:42.605Z,24.70
2019-05-10T13:07:48.275Z,25.40
2019-05-10T13:12:03.086Z,25.10
2019-05-10T13:16:03.504Z,25.70
2019-05-10T13:20:08.690Z,24.20
2019-05-10T13:24:14.468Z,25.10
2019-05-10T13:28:20.086Z,25.50
2019-05-10T13:32:25.877Z,25.90
2019-05-10T13:36:37.263Z,24.90
2019-05-10T13:40:45.543Z,25.80
2019-05-10T13:44:47.968Z,26.00
2019-05-10T13:48:53.649Z,25.50
2019-05-10T13:52:59.242Z,24.70
2019-05-10T13:57:04.963Z,25.00
2019-05-10T14:01:14.802Z,26.30
2019-05-10T14:05:21.790Z,25.60
2019-05-10T14:09:27.391Z,26.00
2019-05-10T14:13:35.869Z,26.30
2019-05-10T14:17:41.543Z,25.40
2019-05-10T14:21:48.291Z,25.60
2019-05-10T14:25:55.102Z,24.60
2019-05-10T14:30:00.776Z,25.80
2019-05-10T14:34:15.288Z,25.00
2019-05-10T14:38:13.768Z,25.70
2019-05-10T14:42:24.052Z,26.20
2019-05-10T14:46:28.660Z,26.70
2019-05-10T14:50:34.298Z,26.30
2019-05-10T14:54:43.841Z,26.40
2019-05-10T14:58:47.398Z,26.50
2019-05-10T15:02:56.798Z,25.30
2019-05-10T15:07:01.096Z,26.20
2019-05-10T15:11:06.738Z,26.30
2019-05-10T15:15:12.584Z,26.70
2019-05-10T15:19:18.210Z,25.60
2019-05-10T15:23:24.615Z,25.50
2019-05-10T15:27:31.492Z,26.10
2019-05-10T15:31:38.399Z,24.30
2019-05-10T15:35:45.659Z,25.90
2019-05-10T15:39:52.543Z,26.10
2019-05-10T15:43:58.529Z,26.00
2019-05-10T15:48:04.533Z,25.90
2019-05-10T15:52:17.455Z,26.00
2019-05-10T15:56:17.555Z,26.10
2019-05-10T16:00:25.388Z,25.10
2019-05-10T16:04:30.939Z,25.50
2019-05-10T16:08:37.381Z,25.70
2019-05-10T16:12:44.513Z,25.70
2019-05-10T16:16:50.318Z,26.10
2019-05-10T16:20:57.049Z,26.20
2019-05-10T16:25:02.957Z,25.60
2019-05-10T16:29:09.637Z,25.80
2019-05-10T16:33:16.111Z,25.80
2019-05-10T16:37:22.861Z,24.70
2019-05-10T16:41:29.524Z,25.00
2019-05-10T16:45:35.208Z,25.40
2019-05-10T16:49:40.854Z,24.60
2019-05-10T16:53:46.457Z,25.00
2019-05-10T16:57:52.495Z,24.90
2019-05-10T17:02:03.986Z,24.90
2019-05-10T17:06:05.788Z,24.00
2019-05-10T17:10:11.625Z,24.30
2019-05-10T17:14:18.010Z,24.20
2019-05-10T17:18:24.754Z,24.10
2019-05-10T17:22:30.567Z,23.80
2019-05-10T17:26:38.706Z,23.90
2019-05-10T17:30:44.967Z,23.80
2019-05-10T17:34:52.241Z,23.20
2019-05-10T17:39:00.261Z,22.70
2019-05-10T17:43:06.595Z,23.30
2019-05-10T17:47:12.631Z,23.30
2019-05-10T17:51:20.517Z,23.70
2019-05-10T17:55:26.379Z,23.70
2019-05-10T17:59:32.850Z,23.70
2019-05-10T18:03:44.495Z,23.50
2019-05-10T18:07:50.503Z,23.40
2019-05-10T18:11:57.206Z,23.30
2019-05-10T18:16:04.610Z,23.20
2019-05-10T18:20:11.093Z,23.10
2019-05-10T18:24:16.963Z,23.00
2019-05-10T18:28:23.629Z,22.70
2019-05-10T18:32:35.726Z,22.80
2019-05-10T18:36:55.190Z,22.40
2019-05-10T18:40:47.922Z,22.50
2019-05-10T18:44:55.085Z,22.30
2019-05-10T18:49:01.692Z,22.10
2019-05-10T18:53:08.061Z,21.80
2019-05-10T18:57:19.109Z,21.80
2019-05-10T19:01:23.256Z,21.70
2019-05-10T19:05:31.516Z,21.50
2019-05-10T19:09:37.056Z,21.50
2019-05-10T19:13:48.948Z,21.40
2019-05-10T19:17:50.717Z,21.00
2019-05-10T19:21:56.677Z,21.10
2019-05-10T19:26:02.411Z,20.90
2019-05-10T19:30:08.325Z,20.80
2019-05-10T19:34:17.222Z,20.60
2019-05-10T19:38:21.771Z,20.40
2019-05-10T19:42:31.418Z,20.10
2019-05-10T19:46:39.069Z,20.00
2019-05-10T19:50:42.805Z,19.80
2019-05-10T19:54:48.657Z,19.90
2019-05-10T19:58:54.455Z,19.80
2019-05-10T20:03:00.256Z,19.20
2019-05-10T20:07:06.521Z,19.20
2019-05-10T20:11:12.874Z,19.10
2019-05-10T20:15:19.501Z,19.20
2019-05-10T20:19:25.885Z,19.20
2019-05-10T20:23:33.246Z,19.20
2019-05-10T20:27:39.078Z,18.70
2019-05-10T20:31:45.551Z,18.90
2019-05-10T20:35:51.481Z,18.70
2019-05-10T20:39:57.337Z,18.80
2019-05-10T20:44:03.144Z,18.70
2019-05-10T20:48:08.978Z,18.80
2019-05-10T20:52:17.222Z,18.60
2019-05-10T20:56:23.031Z,18.40
2019-05-10T21:00:29.283Z,18.30
2019-05-10T21:04:35.185Z,18.40
2019-05-10T21:08:43.789Z,18.40
2019-05-10T21:12:51.931Z,18.20
2019-05-10T21:17:01.423Z,18.10
2019-05-10T21:21:08.310Z,18.10
2019-05-10T21:25:16.170Z,18.00
2019-05-10T21:29:24.001Z,18.00
2019-05-10T21:33:29.672Z,17.80
2019-05-10T21:37:35.433Z,17.70
2019-05-10T21:41:43.005Z,17.50
2019-05-10T21:45:50.557Z,17.30
2019-05-10T21:49:58.740Z,17.40
2019-05-10T21:54:05.573Z,17.40
2019-05-10T21:58:11.345Z,17.30
2019-05-10T22:02:17.373Z,17.10
2019-05-10T22:06:23.186Z,17.20
2019-05-10T22:10:29.013Z,17.00
2019-05-10T22:14:34.760Z,16.80
2019-05-10T22:18:41.822Z,16.90
2019-05-10T22:22:49.774Z,16.70
2019-05-10T22:26:57.814Z,16.70
2019-05-10T22:31:04.500Z,16.50
2019-05-10T22:35:10.287Z,16.40
2019-05-10T22:39:17.375Z,16.20
2019-05-10T22:43:23.054Z,16.30
2019-05-10T22:47:28.734Z,16.30
2019-05-10T22:51:35.252Z,16.10
2019-05-10T22:55:40.886Z,15.90
2019-05-10T22:59:46.767Z,15.90
2019-05-10T23:03:54.258Z,15.70
2019-05-10T23:07:59.924Z,15.70
2019-05-10T23:12:05.626Z,15.60
2019-05-10T23:16:11.431Z,15.70
2019-05-10T23:20:17.237Z,15.70
2019-05-10T23:24:36.502Z,15.50
2019-05-10T23:28:42.240Z,15.30
2019-05-10T23:32:47.947Z,15.30
2019-05-10T23:36:53.946Z,15.40
2019-05-10T23:40:59.646Z,15.50
2019-05-10T23:45:07.752Z,15.50
2019-05-10T23:49:13.574Z,15.40
2019-05-10T23:53:19.219Z,15.30
2019-05-10T23:57:26.449Z,15.20
